sensor_id;sensor_type;location;lat;lon;timestamp;P1;durP1;ratioP1;P2;durP2;ratioP2
291;SDS011;23311;48.776;9.162;2022-11-27T00:01:10;26.27;;;21.40;;
291;SDS011;23311;48.776;9.162;2022-11-27T00:03:39;24.17;;;19.67;;
291;SDS011;23311;48.776;9.162;2022-11-27T00:06:12;22.80;;;18.53;;
291;SDS011;23311;48.776;9.162;2022-11-27T00:08:41;22.37;;;19.33;;
291;SDS011;23311;48.776;9.162;2022-11-27T00:11:11;23.77;;;17.90;;
291;SDS011;23311;48.776;9.162;2022-11-27T00:13:42;21.07;;;17.70;;
291;SDS011;23311;48.776;9.162;2022-11-27T00:16:14;21.90;;;17.57;;
291;SDS011;23311;48.776;9.162;2022-11-27T00:18:44;20.20;;;17.30;;
291;SDS011;23311;48.776;9.162;2022-11-27T00:21:15;22.40;;;17.23;;
291;SDS011;23311;48.776;9.162;2022-11-27T00:23:47;25.00;;;17.37;;
291;SDS011;23311;48.776;9.162;2022-11-27T00:26:16;20.90;;;16.60;;
291;SDS011;23311;48.776;9.162;2022-11-27T00:28:44;25.07;;;17.70;;
291;SDS011;23311;48.776;9.162;2022-11-27T00:31:13;21.40;;;16.30;;
291;SDS011;23311;48.776;9.162;2022-11-27T00:33:43;20.70;;;18.07;;
291;SDS011;23311;48.776;9.162;2022-11-27T00:36:12;24.23;;;17.60;;
291;SDS011;23311;48.776;9.162;2022-11-27T00:38:42;22.93;;;17.30;;
291;SDS011;23311;48.776;9.162;2022-11-27T00:41:11;21.53;;;16.80;;
291;SDS011;23311;48.776;9.162;2022-11-27T00:43:41;21.20;;;17.83;;
291;SDS011;23311;48.776;9.162;2022-11-27T00:46:11;23.13;;;16.93;;
291;SDS011;23311;48.776;9.162;2022-11-27T00:48:39;23.10;;;16.40;;
291;SDS011;23311;48.776;9.162;2022-11-27T00:51:09;22.13;;;17.97;;
291;SDS011;23311;48.776;9.162;2022-11-27T00:53:38;20.27;;;15.77;;
291;SDS011;23311;48.776;9.162;2022-11-27T00:56:08;25.57;;;17.17;;
291;SDS011;23311;48.776;9.162;2022-11-27T00:58:37;21.67;;;16.83;;
291;SDS011;23311;48.776;9.162;2022-11-27T01:01:05;20.13;;;16.70;;
291;SDS011;23311;48.776;9.162;2022-11-27T01:03:34;18.27;;;15.90;;
291;SDS011;23311;48.776;9.162;2022-11-27T01:06:02;18.57;;;14.47;;
291;SDS011;23311;48.776;9.162;2022-11-27T01:08:31;18.83;;;15.40;;
291;SDS011;23311;48.776;9.162;2022-11-27T01:11:00;18.80;;;15.67;;
291;SDS011;23311;48.776;9.162;2022-11-27T01:13:30;20.00;;;16.80;;
291;SDS011;23311;48.776;9.162;2022-11-27T01:16:00;19.40;;;15.07;;
291;SDS011;23311;48.776;9.162;2022-11-27T01:18:30;20.57;;;15.30;;
291;SDS011;23311;48.776;9.162;2022-11-27T01:20:58;19.33;;;15.77;;
291;SDS011;23311;48.776;9.162;2022-11-27T01:23:26;21.90;;;17.73;;
291;SDS011;23311;48.776;9.162;2022-11-27T01:25:55;18.97;;;16.53;;
291;SDS011;23311;48.776;9.162;2022-11-27T01:28:23;22.27;;;16.97;;
291;SDS011;23311;48.776;9.162;2022-11-27T01:30:52;24.00;;;17.93;;
291;SDS011;23311;48.776;9.162;2022-11-27T01:33:20;24.20;;;18.33;;
291;SDS011;23311;48.776;9.162;2022-11-27T01:35:52;28.53;;;19.10;;
291;SDS011;23311;48.776;9.162;2022-11-27T01:38:24;21.73;;;18.33;;
291;SDS011;23311;48.776;9.162;2022-11-27T01:40:56;28.10;;;22.30;;
291;SDS011;23311;48.776;9.162;2022-11-27T01:43:35;32.20;;;24.97;;
291;SDS011;23311;48.776;9.162;2022-11-27T01:46:21;30.67;;;23.70;;
291;SDS011;23311;48.776;9.162;2022-11-27T01:49:00;25.87;;;19.80;;
291;SDS011;23311;48.776;9.162;2022-11-27T01:51:46;35.20;;;25.30;;
291;SDS011;23311;48.776;9.162;2022-11-27T01:54:19;29.67;;;22.60;;
291;SDS011;23311;48.776;9.162;2022-11-27T01:56:51;32.70;;;21.67;;
291;SDS011;23311;48.776;9.162;2022-11-27T01:59:22;22.00;;;16.97;;
291;SDS011;23311;48.776;9.162;2022-11-27T02:01:52;22.40;;;16.87;;
291;SDS011;23311;48.776;9.162;2022-11-27T02:04:20;23.60;;;17.60;;
291;SDS011;23311;48.776;9.162;2022-11-27T02:06:48;20.47;;;14.77;;
291;SDS011;23311;48.776;9.162;2022-11-27T02:09:16;22.50;;;15.63;;
291;SDS011;23311;48.776;9.162;2022-11-27T02:11:46;19.87;;;15.83;;
291;SDS011;23311;48.776;9.162;2022-11-27T02:14:22;20.77;;;16.07;;
291;SDS011;23311;48.776;9.162;2022-11-27T02:16:58;19.90;;;15.23;;
291;SDS011;23311;48.776;9.162;2022-11-27T02:19:38;17.40;;;14.03;;
291;SDS011;23311;48.776;9.162;2022-11-27T02:22:21;22.70;;;15.83;;
291;SDS011;23311;48.776;9.162;2022-11-27T02:25:01;20.20;;;16.23;;
291;SDS011;23311;48.776;9.162;2022-11-27T02:27:55;19.37;;;16.67;;
291;SDS011;23311;48.776;9.162;2022-11-27T02:30:42;19.87;;;13.60;;
291;SDS011;23311;48.776;9.162;2022-11-27T02:33:20;20.40;;;15.57;;
291;SDS011;23311;48.776;9.162;2022-11-27T02:35:49;17.20;;;13.13;;
291;SDS011;23311;48.776;9.162;2022-11-27T02:38:23;20.30;;;14.33;;
291;SDS011;23311;48.776;9.162;2022-11-27T02:40:57;19.93;;;15.20;;
291;SDS011;23311;48.776;9.162;2022-11-27T02:43:32;17.40;;;15.10;;
291;SDS011;23311;48.776;9.162;2022-11-27T02:46:04;16.30;;;14.50;;
291;SDS011;23311;48.776;9.162;2022-11-27T02:48:35;17.30;;;13.67;;
291;SDS011;23311;48.776;9.162;2022-11-27T02:51:08;17.70;;;14.47;;
291;SDS011;23311;48.776;9.162;2022-11-27T02:53:40;21.07;;;14.20;;
291;SDS011;23311;48.776;9.162;2022-11-27T02:56:14;18.07;;;13.30;;
291;SDS011;23311;48.776;9.162;2022-11-27T02:58:45;21.37;;;13.27;;
291;SDS011;23311;48.776;9.162;2022-11-27T03:01:17;18.73;;;12.87;;
291;SDS011;23311;48.776;9.162;2022-11-27T03:03:46;21.60;;;13.30;;
291;SDS011;23311;48.776;9.162;2022-11-27T03:06:19;19.07;;;12.67;;
291;SDS011;23311;48.776;9.162;2022-11-27T03:08:53;18.37;;;13.20;;
291;SDS011;23311;48.776;9.162;2022-11-27T03:11:24;15.80;;;12.20;;
291;SDS011;23311;48.776;9.162;2022-11-27T03:13:56;16.23;;;11.67;;
291;SDS011;23311;48.776;9.162;2022-11-27T03:16:32;15.50;;;12.73;;
291;SDS011;23311;48.776;9.162;2022-11-27T03:19:06;19.00;;;13.23;;
291;SDS011;23311;48.776;9.162;2022-11-27T03:21:43;14.27;;;11.20;;
291;SDS011;23311;48.776;9.162;2022-11-27T03:24:14;17.80;;;12.40;;
291;SDS011;23311;48.776;9.162;2022-11-27T03:26:43;15.50;;;11.07;;
291;SDS011;23311;48.776;9.162;2022-11-27T03:29:12;14.53;;;11.30;;
291;SDS011;23311;48.776;9.162;2022-11-27T03:31:45;17.77;;;12.80;;
291;SDS011;23311;48.776;9.162;2022-11-27T03:34:14;17.53;;;13.20;;
291;SDS011;23311;48.776;9.162;2022-11-27T03:36:42;15.63;;;12.50;;
291;SDS011;23311;48.776;9.162;2022-11-27T03:39:11;21.07;;;15.63;;
291;SDS011;23311;48.776;9.162;2022-11-27T03:41:41;23.83;;;19.43;;
291;SDS011;23311;48.776;9.162;2022-11-27T03:44:16;23.37;;;14.53;;
291;SDS011;23311;48.776;9.162;2022-11-27T03:46:53;20.97;;;16.40;;
291;SDS011;23311;48.776;9.162;2022-11-27T03:49:32;25.13;;;16.93;;
291;SDS011;23311;48.776;9.162;2022-11-27T03:52:07;22.60;;;17.80;;
291;SDS011;23311;48.776;9.162;2022-11-27T03:54:42;21.93;;;16.03;;
291;SDS011;23311;48.776;9.162;2022-11-27T03:57:17;22.07;;;17.13;;
291;SDS011;23311;48.776;9.162;2022-11-27T03:59:50;21.90;;;15.90;;
291;SDS011;23311;48.776;9.162;2022-11-27T04:02:27;16.90;;;13.57;;
291;SDS011;23311;48.776;9.162;2022-11-27T04:04:57;23.13;;;14.07;;
291;SDS011;23311;48.776;9.162;2022-11-27T04:07:25;23.13;;;14.23;;
291;SDS011;23311;48.776;9.162;2022-11-27T04:09:53;17.60;;;14.23;;
291;SDS011;23311;48.776;9.162;2022-11-27T04:12:21;17.90;;;13.20;;
291;SDS011;23311;48.776;9.162;2022-11-27T04:14:51;16.57;;;11.33;;
291;SDS011;23311;48.776;9.162;2022-11-27T04:17:19;18.57;;;12.40;;
291;SDS011;23311;48.776;9.162;2022-11-27T04:19:49;20.30;;;14.60;;
291;SDS011;23311;48.776;9.162;2022-11-27T04:22:17;18.90;;;11.90;;
291;SDS011;23311;48.776;9.162;2022-11-27T04:24:45;19.50;;;14.00;;
291;SDS011;23311;48.776;9.162;2022-11-27T04:27:13;20.13;;;12.70;;
291;SDS011;23311;48.776;9.162;2022-11-27T04:29:41;18.27;;;14.27;;
291;SDS011;23311;48.776;9.162;2022-11-27T04:32:09;17.40;;;15.10;;
291;SDS011;23311;48.776;9.162;2022-11-27T04:34:37;19.23;;;14.27;;
291;SDS011;23311;48.776;9.162;2022-11-27T04:37:07;19.07;;;15.47;;
291;SDS011;23311;48.776;9.162;2022-11-27T04:39:35;17.80;;;15.43;;
291;SDS011;23311;48.776;9.162;2022-11-27T04:42:03;17.70;;;14.53;;
291;SDS011;23311;48.776;9.162;2022-11-27T04:44:31;17.77;;;14.83;;
291;SDS011;23311;48.776;9.162;2022-11-27T04:46:59;21.83;;;15.27;;
291;SDS011;23311;48.776;9.162;2022-11-27T04:49:28;17.30;;;14.83;;
291;SDS011;23311;48.776;9.162;2022-11-27T04:51:56;17.70;;;14.20;;
291;SDS011;23311;48.776;9.162;2022-11-27T04:54:25;19.83;;;14.70;;
291;SDS011;23311;48.776;9.162;2022-11-27T04:56:53;21.97;;;15.23;;
291;SDS011;23311;48.776;9.162;2022-11-27T04:59:21;17.63;;;13.73;;
291;SDS011;23311;48.776;9.162;2022-11-27T05:01:49;19.57;;;14.97;;
291;SDS011;23311;48.776;9.162;2022-11-27T05:04:17;16.67;;;15.30;;
291;SDS011;23311;48.776;9.162;2022-11-27T05:06:45;17.10;;;14.20;;
291;SDS011;23311;48.776;9.162;2022-11-27T05:09:15;18.83;;;14.33;;
291;SDS011;23311;48.776;9.162;2022-11-27T05:11:45;18.33;;;14.87;;
291;SDS011;23311;48.776;9.162;2022-11-27T05:14:13;18.17;;;14.13;;
291;SDS011;23311;48.776;9.162;2022-11-27T05:16:46;21.30;;;15.60;;
291;SDS011;23311;48.776;9.162;2022-11-27T05:19:16;18.30;;;14.67;;
291;SDS011;23311;48.776;9.162;2022-11-27T05:21:45;17.90;;;14.83;;
291;SDS011;23311;48.776;9.162;2022-11-27T05:24:14;16.50;;;14.80;;
291;SDS011;23311;48.776;9.162;2022-11-27T05:26:43;17.43;;;13.87;;
291;SDS011;23311;48.776;9.162;2022-11-27T05:29:13;16.63;;;14.30;;
291;SDS011;23311;48.776;9.162;2022-11-27T05:31:41;16.70;;;13.80;;
291;SDS011;23311;48.776;9.162;2022-11-27T05:34:09;15.93;;;14.67;;
291;SDS011;23311;48.776;9.162;2022-11-27T05:36:38;15.97;;;13.67;;
291;SDS011;23311;48.776;9.162;2022-11-27T05:39:06;17.40;;;13.90;;
291;SDS011;23311;48.776;9.162;2022-11-27T05:41:36;16.03;;;13.47;;
291;SDS011;23311;48.776;9.162;2022-11-27T05:44:06;16.80;;;14.30;;
291;SDS011;23311;48.776;9.162;2022-11-27T05:46:35;17.30;;;14.27;;
291;SDS011;23311;48.776;9.162;2022-11-27T05:49:04;17.40;;;14.87;;
291;SDS011;23311;48.776;9.162;2022-11-27T05:51:32;20.70;;;15.33;;
291;SDS011;23311;48.776;9.162;2022-11-27T05:54:00;21.43;;;15.23;;
291;SDS011;23311;48.776;9.162;2022-11-27T05:56:28;15.83;;;13.83;;
291;SDS011;23311;48.776;9.162;2022-11-27T05:58:56;18.23;;;15.20;;
291;SDS011;23311;48.776;9.162;2022-11-27T06:01:25;19.97;;;15.20;;
291;SDS011;23311;48.776;9.162;2022-11-27T06:03:53;19.33;;;15.60;;
291;SDS011;23311;48.776;9.162;2022-11-27T06:06:21;19.10;;;16.03;;
291;SDS011;23311;48.776;9.162;2022-11-27T06:08:50;19.47;;;14.60;;
291;SDS011;23311;48.776;9.162;2022-11-27T06:11:19;17.30;;;14.20;;
291;SDS011;23311;48.776;9.162;2022-11-27T06:13:48;16.07;;;13.53;;
291;SDS011;23311;48.776;9.162;2022-11-27T06:16:17;18.23;;;14.63;;
291;SDS011;23311;48.776;9.162;2022-11-27T06:18:49;19.47;;;14.43;;
291;SDS011;23311;48.776;9.162;2022-11-27T06:21:18;19.73;;;15.30;;
291;SDS011;23311;48.776;9.162;2022-11-27T06:23:47;23.37;;;16.23;;
291;SDS011;23311;48.776;9.162;2022-11-27T06:26:16;18.27;;;14.37;;
291;SDS011;23311;48.776;9.162;2022-11-27T06:28:45;22.13;;;15.57;;
291;SDS011;23311;48.776;9.162;2022-11-27T06:31:15;20.67;;;15.23;;
291;SDS011;23311;48.776;9.162;2022-11-27T06:33:45;23.47;;;15.77;;
291;SDS011;23311;48.776;9.162;2022-11-27T06:36:15;19.03;;;15.83;;
291;SDS011;23311;48.776;9.162;2022-11-27T06:38:45;19.43;;;14.77;;
291;SDS011;23311;48.776;9.162;2022-11-27T06:41:14;20.33;;;13.53;;
291;SDS011;23311;48.776;9.162;2022-11-27T06:43:46;19.27;;;15.13;;
291;SDS011;23311;48.776;9.162;2022-11-27T06:46:15;18.67;;;14.10;;
291;SDS011;23311;48.776;9.162;2022-11-27T06:48:45;19.50;;;15.00;;
291;SDS011;23311;48.776;9.162;2022-11-27T06:51:16;16.53;;;13.80;;
291;SDS011;23311;48.776;9.162;2022-11-27T06:53:46;18.43;;;14.40;;
291;SDS011;23311;48.776;9.162;2022-11-27T06:56:15;18.87;;;14.73;;
291;SDS011;23311;48.776;9.162;2022-11-27T06:58:44;21.50;;;16.10;;
291;SDS011;23311;48.776;9.162;2022-11-27T07:01:13;22.03;;;15.20;;
291;SDS011;23311;48.776;9.162;2022-11-27T07:03:43;23.17;;;17.60;;
291;SDS011;23311;48.776;9.162;2022-11-27T07:06:14;18.67;;;13.57;;
291;SDS011;23311;48.776;9.162;2022-11-27T07:08:47;22.03;;;15.80;;
291;SDS011;23311;48.776;9.162;2022-11-27T07:11:16;17.83;;;14.57;;
291;SDS011;23311;48.776;9.162;2022-11-27T07:13:45;17.50;;;14.00;;
291;SDS011;23311;48.776;9.162;2022-11-27T07:16:14;18.17;;;14.43;;
291;SDS011;23311;48.776;9.162;2022-11-27T07:18:45;20.97;;;14.50;;
291;SDS011;23311;48.776;9.162;2022-11-27T07:21:15;19.03;;;14.47;;
291;SDS011;23311;48.776;9.162;2022-11-27T07:23:45;20.23;;;16.03;;
291;SDS011;23311;48.776;9.162;2022-11-27T07:26:13;21.03;;;15.10;;
291;SDS011;23311;48.776;9.162;2022-11-27T07:28:43;19.07;;;15.80;;
291;SDS011;23311;48.776;9.162;2022-11-27T07:31:12;18.30;;;14.43;;
291;SDS011;23311;48.776;9.162;2022-11-27T07:33:42;19.07;;;15.77;;
291;SDS011;23311;48.776;9.162;2022-11-27T07:36:12;18.03;;;13.67;;
291;SDS011;23311;48.776;9.162;2022-11-27T07:38:41;15.63;;;13.47;;
291;SDS011;23311;48.776;9.162;2022-11-27T07:41:11;16.40;;;12.60;;
291;SDS011;23311;48.776;9.162;2022-11-27T07:43:41;15.07;;;12.50;;
291;SDS011;23311;48.776;9.162;2022-11-27T07:46:11;14.07;;;12.33;;
291;SDS011;23311;48.776;9.162;2022-11-27T07:48:40;16.83;;;13.27;;
291;SDS011;23311;48.776;9.162;2022-11-27T07:51:09;17.20;;;13.80;;
291;SDS011;23311;48.776;9.162;2022-11-27T07:53:39;14.13;;;12.40;;
291;SDS011;23311;48.776;9.162;2022-11-27T07:56:09;18.17;;;13.30;;
291;SDS011;23311;48.776;9.162;2022-11-27T07:58:39;17.23;;;12.30;;
291;SDS011;23311;48.776;9.162;2022-11-27T08:01:08;14.10;;;12.70;;
291;SDS011;23311;48.776;9.162;2022-11-27T08:03:38;19.93;;;12.90;;
291;SDS011;23311;48.776;9.162;2022-11-27T08:06:12;16.07;;;11.90;;
291;SDS011;23311;48.776;9.162;2022-11-27T08:08:44;17.50;;;12.80;;
291;SDS011;23311;48.776;9.162;2022-11-27T08:11:14;15.77;;;11.53;;
291;SDS011;23311;48.776;9.162;2022-11-27T08:13:44;14.67;;;12.80;;
291;SDS011;23311;48.776;9.162;2022-11-27T08:16:13;14.67;;;11.47;;
291;SDS011;23311;48.776;9.162;2022-11-27T08:18:41;15.60;;;11.50;;
291;SDS011;23311;48.776;9.162;2022-11-27T08:21:09;14.27;;;11.37;;
291;SDS011;23311;48.776;9.162;2022-11-27T08:23:37;12.20;;;11.23;;
291;SDS011;23311;48.776;9.162;2022-11-27T08:26:06;14.37;;;11.60;;
291;SDS011;23311;48.776;9.162;2022-11-27T08:28:35;14.17;;;11.00;;
291;SDS011;23311;48.776;9.162;2022-11-27T08:31:06;12.80;;;11.10;;
291;SDS011;23311;48.776;9.162;2022-11-27T08:33:35;13.57;;;9.60;;
291;SDS011;23311;48.776;9.162;2022-11-27T08:36:04;13.53;;;10.00;;
291;SDS011;23311;48.776;9.162;2022-11-27T08:38:38;10.30;;;9.77;;
291;SDS011;23311;48.776;9.162;2022-11-27T08:41:06;13.07;;;10.33;;
291;SDS011;23311;48.776;9.162;2022-11-27T08:43:35;11.43;;;10.33;;
291;SDS011;23311;48.776;9.162;2022-11-27T08:46:05;11.77;;;9.50;;
291;SDS011;23311;48.776;9.162;2022-11-27T08:48:33;13.03;;;9.70;;
291;SDS011;23311;48.776;9.162;2022-11-27T08:51:03;11.00;;;9.00;;
291;SDS011;23311;48.776;9.162;2022-11-27T08:53:33;9.10;;;8.17;;
291;SDS011;23311;48.776;9.162;2022-11-27T08:56:04;8.90;;;8.10;;
291;SDS011;23311;48.776;9.162;2022-11-27T08:58:32;9.00;;;8.00;;
291;SDS011;23311;48.776;9.162;2022-11-27T09:01:06;9.03;;;7.60;;
291;SDS011;23311;48.776;9.162;2022-11-27T09:03:35;11.93;;;9.20;;
291;SDS011;23311;48.776;9.162;2022-11-27T09:06:07;9.73;;;8.93;;
291;SDS011;23311;48.776;9.162;2022-11-27T09:08:37;9.33;;;7.50;;
291;SDS011;23311;48.776;9.162;2022-11-27T09:11:05;8.13;;;7.33;;
291;SDS011;23311;48.776;9.162;2022-11-27T09:13:34;9.63;;;8.10;;
291;SDS011;23311;48.776;9.162;2022-11-27T09:16:02;8.50;;;7.10;;
291;SDS011;23311;48.776;9.162;2022-11-27T09:18:32;9.07;;;7.60;;
291;SDS011;23311;48.776;9.162;2022-11-27T09:21:02;9.43;;;7.30;;
291;SDS011;23311;48.776;9.162;2022-11-27T09:23:31;6.90;;;5.20;;
291;SDS011;23311;48.776;9.162;2022-11-27T09:26:00;6.00;;;5.17;;
291;SDS011;23311;48.776;9.162;2022-11-27T09:28:29;12.67;;;5.63;;
291;SDS011;23311;48.776;9.162;2022-11-27T09:30:58;7.87;;;6.20;;
291;SDS011;23311;48.776;9.162;2022-11-27T09:33:29;9.47;;;7.50;;
291;SDS011;23311;48.776;9.162;2022-11-27T09:36:03;14.00;;;12.60;;
291;SDS011;23311;48.776;9.162;2022-11-27T09:38:32;12.67;;;11.33;;
291;SDS011;23311;48.776;9.162;2022-11-27T09:41:01;9.50;;;9.00;;
291;SDS011;23311;48.776;9.162;2022-11-27T09:43:40;10.70;;;9.70;;
291;SDS011;23311;48.776;9.162;2022-11-27T09:46:12;9.33;;;8.83;;
291;SDS011;23311;48.776;9.162;2022-11-27T09:48:46;9.53;;;9.03;;
291;SDS011;23311;48.776;9.162;2022-11-27T09:51:20;9.70;;;8.53;;
291;SDS011;23311;48.776;9.162;2022-11-27T09:53:55;9.13;;;8.33;;
291;SDS011;23311;48.776;9.162;2022-11-27T09:56:28;9.10;;;8.60;;
291;SDS011;23311;48.776;9.162;2022-11-27T09:58:59;9.60;;;8.33;;
291;SDS011;23311;48.776;9.162;2022-11-27T10:01:31;8.67;;;8.17;;
291;SDS011;23311;48.776;9.162;2022-11-27T10:04:10;7.80;;;7.47;;
291;SDS011;23311;48.776;9.162;2022-11-27T10:06:44;8.10;;;7.33;;
291;SDS011;23311;48.776;9.162;2022-11-27T10:09:28;10.20;;;8.10;;
291;SDS011;23311;48.776;9.162;2022-11-27T10:12:05;10.87;;;8.90;;
291;SDS011;23311;48.776;9.162;2022-11-27T10:14:43;7.33;;;6.93;;
291;SDS011;23311;48.776;9.162;2022-11-27T10:17:21;9.03;;;7.53;;
291;SDS011;23311;48.776;9.162;2022-11-27T10:19:55;9.83;;;7.87;;
291;SDS011;23311;48.776;9.162;2022-11-27T10:22:32;10.03;;;7.53;;
291;SDS011;23311;48.776;9.162;2022-11-27T10:25:10;9.57;;;7.70;;
291;SDS011;23311;48.776;9.162;2022-11-27T10:27:45;9.73;;;8.17;;
291;SDS011;23311;48.776;9.162;2022-11-27T10:30:24;7.27;;;6.63;;
291;SDS011;23311;48.776;9.162;2022-11-27T10:32:54;8.40;;;7.87;;
291;SDS011;23311;48.776;9.162;2022-11-27T10:35:25;10.67;;;7.80;;
291;SDS011;23311;48.776;9.162;2022-11-27T10:37:57;9.73;;;8.17;;
291;SDS011;23311;48.776;9.162;2022-11-27T10:40:33;8.33;;;7.07;;
291;SDS011;23311;48.776;9.162;2022-11-27T10:43:06;10.03;;;7.53;;
291;SDS011;23311;48.776;9.162;2022-11-27T10:45:41;12.87;;;8.17;;
291;SDS011;23311;48.776;9.162;2022-11-27T10:48:13;9.07;;;7.40;;
291;SDS011;23311;48.776;9.162;2022-11-27T10:50:42;9.43;;;8.33;;
291;SDS011;23311;48.776;9.162;2022-11-27T10:53:15;8.20;;;7.40;;
291;SDS011;23311;48.776;9.162;2022-11-27T10:56:00;9.77;;;8.03;;
291;SDS011;23311;48.776;9.162;2022-11-27T10:58:41;7.57;;;7.03;;
291;SDS011;23311;48.776;9.162;2022-11-27T11:01:13;10.73;;;7.20;;
291;SDS011;23311;48.776;9.162;2022-11-27T11:03:43;8.50;;;7.33;;
291;SDS011;23311;48.776;9.162;2022-11-27T11:06:13;8.97;;;7.13;;
291;SDS011;23311;48.776;9.162;2022-11-27T11:08:58;8.17;;;7.00;;
291;SDS011;23311;48.776;9.162;2022-11-27T11:11:27;8.73;;;6.90;;
291;SDS011;23311;48.776;9.162;2022-11-27T11:13:55;7.50;;;6.33;;
291;SDS011;23311;48.776;9.162;2022-11-27T11:16:24;7.30;;;6.70;;
291;SDS011;23311;48.776;9.162;2022-11-27T11:19:00;7.53;;;6.13;;
291;SDS011;23311;48.776;9.162;2022-11-27T11:21:29;6.97;;;6.20;;
291;SDS011;23311;48.776;9.162;2022-11-27T11:24:01;7.57;;;6.33;;
291;SDS011;23311;48.776;9.162;2022-11-27T11:26:32;7.03;;;6.50;;
291;SDS011;23311;48.776;9.162;2022-11-27T11:29:05;8.10;;;5.97;;
291;SDS011;23311;48.776;9.162;2022-11-27T11:31:44;9.00;;;6.20;;
291;SDS011;23311;48.776;9.162;2022-11-27T11:34:14;7.17;;;6.00;;
291;SDS011;23311;48.776;9.162;2022-11-27T11:36:54;9.07;;;6.90;;
291;SDS011;23311;48.776;9.162;2022-11-27T11:39:26;8.30;;;6.30;;
291;SDS011;23311;48.776;9.162;2022-11-27T11:41:56;8.93;;;5.93;;
291;SDS011;23311;48.776;9.162;2022-11-27T11:44:28;7.03;;;6.20;;
291;SDS011;23311;48.776;9.162;2022-11-27T11:46:59;9.20;;;6.40;;
291;SDS011;23311;48.776;9.162;2022-11-27T11:49:27;7.80;;;6.20;;
291;SDS011;23311;48.776;9.162;2022-11-27T11:52:04;6.43;;;5.90;;
291;SDS011;23311;48.776;9.162;2022-11-27T11:54:48;6.60;;;5.70;;
291;SDS011;23311;48.776;9.162;2022-11-27T12:00:33;7.50;;;6.17;;
291;SDS011;23311;48.776;9.162;2022-11-27T12:03:33;7.33;;;5.37;;
291;SDS011;23311;48.776;9.162;2022-11-27T12:06:11;7.77;;;5.10;;
291;SDS011;23311;48.776;9.162;2022-11-27T12:08:52;8.97;;;6.13;;
291;SDS011;23311;48.776;9.162;2022-11-27T12:11:28;6.37;;;5.50;;
291;SDS011;23311;48.776;9.162;2022-11-27T12:14:06;6.40;;;5.27;;
291;SDS011;23311;48.776;9.162;2022-11-27T12:16:49;6.50;;;5.53;;
291;SDS011;23311;48.776;9.162;2022-11-27T12:19:31;6.33;;;5.40;;
291;SDS011;23311;48.776;9.162;2022-11-27T12:22:29;6.67;;;4.87;;
291;SDS011;23311;48.776;9.162;2022-11-27T12:25:16;5.47;;;4.33;;
291;SDS011;23311;48.776;9.162;2022-11-27T12:27:58;6.97;;;3.80;;
291;SDS011;23311;48.776;9.162;2022-11-27T12:30:38;5.63;;;3.63;;
291;SDS011;23311;48.776;9.162;2022-11-27T12:33:15;6.40;;;5.53;;
291;SDS011;23311;48.776;9.162;2022-11-27T12:36:10;4.80;;;4.20;;
291;SDS011;23311;48.776;9.162;2022-11-27T12:38:59;3.80;;;3.13;;
291;SDS011;23311;48.776;9.162;2022-11-27T12:41:43;6.30;;;3.77;;
291;SDS011;23311;48.776;9.162;2022-11-27T12:44:29;5.83;;;4.90;;
291;SDS011;23311;48.776;9.162;2022-11-27T12:47:05;5.93;;;4.00;;
291;SDS011;23311;48.776;9.162;2022-11-27T12:49:39;4.80;;;3.20;;
291;SDS011;23311;48.776;9.162;2022-11-27T12:52:10;3.27;;;2.70;;
291;SDS011;23311;48.776;9.162;2022-11-27T12:54:45;4.00;;;2.50;;
291;SDS011;23311;48.776;9.162;2022-11-27T12:57:17;4.10;;;3.03;;
291;SDS011;23311;48.776;9.162;2022-11-27T12:59:51;4.17;;;3.13;;
291;SDS011;23311;48.776;9.162;2022-11-27T13:02:26;3.97;;;2.80;;
291;SDS011;23311;48.776;9.162;2022-11-27T13:04:59;3.33;;;2.37;;
291;SDS011;23311;48.776;9.162;2022-11-27T13:07:30;7.23;;;2.93;;
291;SDS011;23311;48.776;9.162;2022-11-27T13:10:09;4.90;;;3.10;;
291;SDS011;23311;48.776;9.162;2022-11-27T13:12:42;4.93;;;3.50;;
291;SDS011;23311;48.776;9.162;2022-11-27T13:15:18;4.73;;;3.07;;
291;SDS011;23311;48.776;9.162;2022-11-27T13:17:50;4.17;;;3.00;;
291;SDS011;23311;48.776;9.162;2022-11-27T13:20:27;4.50;;;3.07;;
291;SDS011;23311;48.776;9.162;2022-11-27T13:22:59;4.80;;;3.13;;
291;SDS011;23311;48.776;9.162;2022-11-27T13:25:27;5.20;;;3.27;;
291;SDS011;23311;48.776;9.162;2022-11-27T13:27:58;3.20;;;2.63;;
291;SDS011;23311;48.776;9.162;2022-11-27T13:30:31;2.90;;;2.63;;
291;SDS011;23311;48.776;9.162;2022-11-27T13:33:02;3.60;;;2.90;;
291;SDS011;23311;48.776;9.162;2022-11-27T13:35:35;5.13;;;3.40;;
291;SDS011;23311;48.776;9.162;2022-11-27T13:38:07;4.00;;;2.70;;
291;SDS011;23311;48.776;9.162;2022-11-27T13:40:38;4.67;;;3.90;;
291;SDS011;23311;48.776;9.162;2022-11-27T13:43:17;4.27;;;2.70;;
291;SDS011;23311;48.776;9.162;2022-11-27T13:45:50;3.77;;;3.13;;
291;SDS011;23311;48.776;9.162;2022-11-27T13:48:29;3.83;;;3.00;;
291;SDS011;23311;48.776;9.162;2022-11-27T13:51:00;3.60;;;3.20;;
291;SDS011;23311;48.776;9.162;2022-11-27T13:53:30;4.80;;;3.20;;
291;SDS011;23311;48.776;9.162;2022-11-27T13:56:00;5.27;;;2.93;;
291;SDS011;23311;48.776;9.162;2022-11-27T13:58:29;4.80;;;3.23;;
291;SDS011;23311;48.776;9.162;2022-11-27T14:01:12;5.70;;;3.40;;
291;SDS011;23311;48.776;9.162;2022-11-27T14:03:42;4.30;;;3.23;;
291;SDS011;23311;48.776;9.162;2022-11-27T14:06:14;4.17;;;3.40;;
291;SDS011;23311;48.776;9.162;2022-11-27T14:08:50;5.67;;;3.73;;
291;SDS011;23311;48.776;9.162;2022-11-27T14:11:36;5.50;;;4.10;;
291;SDS011;23311;48.776;9.162;2022-11-27T14:14:16;6.37;;;4.40;;
291;SDS011;23311;48.776;9.162;2022-11-27T14:16:54;10.53;;;5.90;;
291;SDS011;23311;48.776;9.162;2022-11-27T14:19:28;4.90;;;4.60;;
291;SDS011;23311;48.776;9.162;2022-11-27T14:22:00;4.90;;;3.90;;
291;SDS011;23311;48.776;9.162;2022-11-27T14:24:35;5.37;;;3.70;;
291;SDS011;23311;48.776;9.162;2022-11-27T14:27:17;6.07;;;4.37;;
291;SDS011;23311;48.776;9.162;2022-11-27T14:29:46;5.10;;;4.30;;
291;SDS011;23311;48.776;9.162;2022-11-27T14:32:17;4.83;;;4.30;;
291;SDS011;23311;48.776;9.162;2022-11-27T14:34:46;7.00;;;5.30;;
291;SDS011;23311;48.776;9.162;2022-11-27T14:37:19;6.83;;;4.83;;
291;SDS011;23311;48.776;9.162;2022-11-27T14:39:49;6.70;;;4.83;;
291;SDS011;23311;48.776;9.162;2022-11-27T14:42:19;6.27;;;4.50;;
291;SDS011;23311;48.776;9.162;2022-11-27T14:45:01;6.67;;;4.57;;
291;SDS011;23311;48.776;9.162;2022-11-27T14:47:32;5.53;;;4.70;;
291;SDS011;23311;48.776;9.162;2022-11-27T14:50:01;6.83;;;4.60;;
291;SDS011;23311;48.776;9.162;2022-11-27T14:52:29;5.70;;;4.90;;
291;SDS011;23311;48.776;9.162;2022-11-27T14:54:58;6.53;;;5.53;;
291;SDS011;23311;48.776;9.162;2022-11-27T14:57:27;10.13;;;4.60;;
291;SDS011;23311;48.776;9.162;2022-11-27T15:00:09;4.43;;;4.03;;
291;SDS011;23311;48.776;9.162;2022-11-27T15:02:43;7.17;;;4.67;;
291;SDS011;23311;48.776;9.162;2022-11-27T15:05:17;5.13;;;3.93;;
291;SDS011;23311;48.776;9.162;2022-11-27T15:07:47;4.80;;;3.40;;
291;SDS011;23311;48.776;9.162;2022-11-27T15:10:27;5.50;;;5.17;;
291;SDS011;23311;48.776;9.162;2022-11-27T15:12:59;4.30;;;4.00;;
291;SDS011;23311;48.776;9.162;2022-11-27T15:15:30;6.87;;;5.40;;
291;SDS011;23311;48.776;9.162;2022-11-27T15:18:05;5.93;;;4.50;;
291;SDS011;23311;48.776;9.162;2022-11-27T15:20:35;5.73;;;4.30;;
291;SDS011;23311;48.776;9.162;2022-11-27T15:23:11;7.93;;;4.70;;
291;SDS011;23311;48.776;9.162;2022-11-27T15:25:43;8.43;;;5.10;;
291;SDS011;23311;48.776;9.162;2022-11-27T15:28:24;5.67;;;4.87;;
291;SDS011;23311;48.776;9.162;2022-11-27T15:30:55;7.30;;;5.43;;